Miami, Indiana
Current Conditions -  °F | °C
As of 10:58 PM on Friday 24 Oct 2014 (Local Time) from KGUS Reporting Station
Clear Clear  
Wind Chill: 51°   Ceiling: Unl
Heat Index: 51°   Visibility: 10mi
Dew Point: 51°   Wind: 6mph
Humidity: 100%   Direction: 210°SSW
Pressure: 30"   Gusts: NA
Location:  40.61°N, 86.11°W
Report Text: KGUS 250258Z AUTO 21005KT 10SM CLR 11/11 A3000 RMK AO2 SLP163 T01060106 55002
Loading
Personal Weather Stations






























Interactive Weather Map
Tropical Storm Tracking
New forecast layout! Learn more

10-Day Weather Forecast

Advertisements
Track Severe Weather on mobile